sensor_id;sensor_type;location;lat;lon;timestamp;noise_LAeq;noise_LA_min;noise_LA_max;noise_LA01;noise_LA95
71016;Laerm;60940;52.046;5.340;2023-05-07T00:00:09;29.24;27.77;41.50;;
71016;Laerm;60940;52.046;5.340;2023-05-07T00:00:19;29.08;27.89;30.39;;
71016;Laerm;60940;52.046;5.340;2023-05-07T00:00:29;29.33;28.13;31.19;;
71016;Laerm;60940;52.046;5.340;2023-05-07T00:00:39;29.08;27.96;30.04;;
71016;Laerm;60940;52.046;5.340;2023-05-07T00:00:50;29.37;28.28;30.51;;
71016;Laerm;60940;52.046;5.340;2023-05-07T00:01:01;29.32;28.14;30.57;;
71016;Laerm;60940;52.046;5.340;2023-05-07T00:01:12;28.93;27.87;29.95;;
71016;Laerm;60940;52.046;5.340;2023-05-07T00:01:22;28.86;27.62;31.08;;
71016;Laerm;60940;52.046;5.340;2023-05-07T00:01:32;28.92;27.90;31.68;;
71016;Laerm;60940;52.046;5.340;2023-05-07T00:01:43;29.16;28.11;33.41;;
71016;Laerm;60940;52.046;5.340;2023-05-07T00:01:53;30.30;28.62;32.87;;
71016;Laerm;60940;52.046;5.340;2023-05-07T00:02:03;33.38;31.13;35.81;;
71016;Laerm;60940;52.046;5.340;2023-05-07T00:02:14;38.99;32.06;47.64;;
71016;Laerm;60940;52.046;5.340;2023-05-07T00:02:24;45.84;34.98;51.84;;
71016;Laerm;60940;52.046;5.340;2023-05-07T00:02:35;30.82;28.06;35.96;;
71016;Laerm;60940;52.046;5.340;2023-05-07T00:02:45;29.12;27.26;34.47;;
71016;Laerm;60940;52.046;5.340;2023-05-07T00:02:56;28.76;27.63;29.88;;
71016;Laerm;60940;52.046;5.340;2023-05-07T00:03:06;28.64;27.71;29.60;;
71016;Laerm;60940;52.046;5.340;2023-05-07T00:03:16;28.59;27.68;29.64;;
71016;Laerm;60940;52.046;5.340;2023-05-07T00:03:26;28.53;27.55;29.48;;
71016;Laerm;60940;52.046;5.340;2023-05-07T00:03:37;28.56;27.15;29.57;;
71016;Laerm;60940;52.046;5.340;2023-05-07T00:03:47;28.60;27.46;33.18;;
71016;Laerm;60940;52.046;5.340;2023-05-07T00:03:58;28.73;27.69;31.73;;
71016;Laerm;60940;52.046;5.340;2023-05-07T00:04:08;28.77;27.67;29.77;;
71016;Laerm;60940;52.046;5.340;2023-05-07T00:04:18;28.83;27.58;34.02;;
71016;Laerm;60940;52.046;5.340;2023-05-07T00:04:28;28.93;28.08;30.12;;
71016;Laerm;60940;52.046;5.340;2023-05-07T00:04:38;28.76;27.46;30.31;;
71016;Laerm;60940;52.046;5.340;2023-05-07T00:04:49;28.72;27.81;29.97;;
71016;Laerm;60940;52.046;5.340;2023-05-07T00:04:59;28.78;27.62;29.93;;
71016;Laerm;60940;52.046;5.340;2023-05-07T00:05:09;28.61;27.51;32.15;;
71016;Laerm;60940;52.046;5.340;2023-05-07T00:05:19;28.81;27.54;30.09;;
71016;Laerm;60940;52.046;5.340;2023-05-07T00:05:30;28.68;27.59;30.41;;
71016;Laerm;60940;52.046;5.340;2023-05-07T00:05:40;28.54;27.36;29.58;;
71016;Laerm;60940;52.046;5.340;2023-05-07T00:05:51;28.57;27.52;29.53;;
71016;Laerm;60940;52.046;5.340;2023-05-07T00:06:02;28.45;27.21;29.54;;
71016;Laerm;60940;52.046;5.340;2023-05-07T00:06:13;28.42;27.11;29.43;;
71016;Laerm;60940;52.046;5.340;2023-05-07T00:06:24;28.41;27.55;29.44;;
71016;Laerm;60940;52.046;5.340;2023-05-07T00:06:36;28.41;27.33;29.31;;
71016;Laerm;60940;52.046;5.340;2023-05-07T00:06:46;28.50;27.72;29.45;;
71016;Laerm;60940;52.046;5.340;2023-05-07T00:06:56;28.66;27.52;29.65;;
71016;Laerm;60940;52.046;5.340;2023-05-07T00:07:06;28.66;27.52;31.04;;
71016;Laerm;60940;52.046;5.340;2023-05-07T00:07:16;29.23;27.47;40.72;;
71016;Laerm;60940;52.046;5.340;2023-05-07T00:07:26;28.82;27.76;29.97;;
71016;Laerm;60940;52.046;5.340;2023-05-07T00:07:37;28.55;27.57;29.47;;
71016;Laerm;60940;52.046;5.340;2023-05-07T00:07:47;28.49;27.23;29.32;;
71016;Laerm;60940;52.046;5.340;2023-05-07T00:07:57;28.53;27.46;29.56;;
71016;Laerm;60940;52.046;5.340;2023-05-07T00:08:07;28.57;27.76;29.72;;
71016;Laerm;60940;52.046;5.340;2023-05-07T00:08:18;28.67;27.45;31.74;;
71016;Laerm;60940;52.046;5.340;2023-05-07T00:08:28;28.51;27.51;32.46;;
71016;Laerm;60940;52.046;5.340;2023-05-07T00:08:38;28.50;27.56;29.48;;
71016;Laerm;60940;52.046;5.340;2023-05-07T00:08:49;28.60;27.70;29.51;;
71016;Laerm;60940;52.046;5.340;2023-05-07T00:08:59;28.66;27.50;30.04;;
71016;Laerm;60940;52.046;5.340;2023-05-07T00:09:10;28.67;27.71;32.34;;
71016;Laerm;60940;52.046;5.340;2023-05-07T00:09:20;28.75;27.82;33.28;;
71016;Laerm;60940;52.046;5.340;2023-05-07T00:09:31;29.73;27.95;44.62;;
71016;Laerm;60940;52.046;5.340;2023-05-07T00:09:41;28.73;27.66;29.77;;
71016;Laerm;60940;52.046;5.340;2023-05-07T00:09:51;28.82;27.85;29.78;;
71016;Laerm;60940;52.046;5.340;2023-05-07T00:10:02;28.86;27.72;30.10;;
71016;Laerm;60940;52.046;5.340;2023-05-07T00:10:12;29.01;27.84;29.96;;
71016;Laerm;60940;52.046;5.340;2023-05-07T00:10:22;29.04;27.83;30.03;;
71016;Laerm;60940;52.046;5.340;2023-05-07T00:10:33;30.15;28.01;35.63;;
71016;Laerm;60940;52.046;5.340;2023-05-07T00:10:43;28.78;27.88;29.73;;
71016;Laerm;60940;52.046;5.340;2023-05-07T00:10:53;28.97;27.77;30.27;;
71016;Laerm;60940;52.046;5.340;2023-05-07T00:11:03;29.80;28.09;43.45;;
71016;Laerm;60940;52.046;5.340;2023-05-07T00:11:14;28.91;27.75;30.43;;
71016;Laerm;60940;52.046;5.340;2023-05-07T00:11:24;28.84;27.82;29.84;;
71016;Laerm;60940;52.046;5.340;2023-05-07T00:11:35;28.66;27.63;29.55;;
71016;Laerm;60940;52.046;5.340;2023-05-07T00:11:45;28.68;27.86;29.70;;
71016;Laerm;60940;52.046;5.340;2023-05-07T00:11:56;28.79;27.92;29.65;;
71016;Laerm;60940;52.046;5.340;2023-05-07T00:12:06;28.98;27.45;30.64;;
71016;Laerm;60940;52.046;5.340;2023-05-07T00:12:17;28.75;27.80;29.50;;
71016;Laerm;60940;52.046;5.340;2023-05-07T00:12:27;28.72;27.52;30.25;;
71016;Laerm;60940;52.046;5.340;2023-05-07T00:12:37;28.74;27.81;29.63;;
71016;Laerm;60940;52.046;5.340;2023-05-07T00:12:47;28.76;27.70;29.62;;
71016;Laerm;60940;52.046;5.340;2023-05-07T00:12:58;28.64;27.18;29.74;;
71016;Laerm;60940;52.046;5.340;2023-05-07T00:13:08;28.60;27.54;31.92;;
71016;Laerm;60940;52.046;5.340;2023-05-07T00:13:18;28.52;27.59;29.28;;
71016;Laerm;60940;52.046;5.340;2023-05-07T00:13:28;28.59;27.69;29.70;;
71016;Laerm;60940;52.046;5.340;2023-05-07T00:13:45;28.73;27.63;33.46;;
71016;Laerm;60940;52.046;5.340;2023-05-07T00:13:55;28.56;27.42;29.60;;
71016;Laerm;60940;52.046;5.340;2023-05-07T00:14:05;28.57;27.74;29.58;;
71016;Laerm;60940;52.046;5.340;2023-05-07T00:14:15;28.49;27.60;29.35;;
71016;Laerm;60940;52.046;5.340;2023-05-07T00:14:26;28.59;27.39;29.63;;
71016;Laerm;60940;52.046;5.340;2023-05-07T00:14:36;28.68;27.70;29.83;;
71016;Laerm;60940;52.046;5.340;2023-05-07T00:14:46;28.83;27.53;29.88;;
71016;Laerm;60940;52.046;5.340;2023-05-07T00:14:56;28.81;27.93;30.59;;
71016;Laerm;60940;52.046;5.340;2023-05-07T00:15:07;28.80;27.93;30.06;;
71016;Laerm;60940;52.046;5.340;2023-05-07T00:15:17;28.86;27.64;29.99;;
71016;Laerm;60940;52.046;5.340;2023-05-07T00:15:27;29.09;27.74;31.03;;
71016;Laerm;60940;52.046;5.340;2023-05-07T00:15:37;28.97;27.97;30.08;;
71016;Laerm;60940;52.046;5.340;2023-05-07T00:15:48;28.78;27.78;30.11;;
71016;Laerm;60940;52.046;5.340;2023-05-07T00:15:58;28.87;27.61;34.16;;
71016;Laerm;60940;52.046;5.340;2023-05-07T00:16:08;28.80;27.46;30.79;;
71016;Laerm;60940;52.046;5.340;2023-05-07T00:16:18;28.83;27.61;34.10;;
71016;Laerm;60940;52.046;5.340;2023-05-07T00:16:29;28.72;27.84;29.57;;
71016;Laerm;60940;52.046;5.340;2023-05-07T00:16:39;29.11;27.68;36.17;;
71016;Laerm;60940;52.046;5.340;2023-05-07T00:16:49;28.97;27.68;33.59;;
71016;Laerm;60940;52.046;5.340;2023-05-07T00:16:59;28.88;27.80;36.78;;
71016;Laerm;60940;52.046;5.340;2023-05-07T00:17:10;28.69;27.67;34.36;;
71016;Laerm;60940;52.046;5.340;2023-05-07T00:17:20;28.79;27.57;31.53;;
71016;Laerm;60940;52.046;5.340;2023-05-07T00:17:30;29.00;28.11;32.21;;
71016;Laerm;60940;52.046;5.340;2023-05-07T00:17:40;29.34;28.16;30.86;;
71016;Laerm;60940;52.046;5.340;2023-05-07T00:17:50;29.28;28.00;31.52;;
71016;Laerm;60940;52.046;5.340;2023-05-07T00:18:01;28.92;27.96;30.06;;
71016;Laerm;60940;52.046;5.340;2023-05-07T00:18:11;28.85;27.73;30.63;;
71016;Laerm;60940;52.046;5.340;2023-05-07T00:18:21;28.84;27.59;33.83;;
71016;Laerm;60940;52.046;5.340;2023-05-07T00:18:32;28.69;27.36;29.85;;
71016;Laerm;60940;52.046;5.340;2023-05-07T00:18:42;28.61;27.38;29.53;;
71016;Laerm;60940;52.046;5.340;2023-05-07T00:18:52;28.74;27.72;30.70;;
71016;Laerm;60940;52.046;5.340;2023-05-07T00:19:03;28.77;27.66;30.33;;
71016;Laerm;60940;52.046;5.340;2023-05-07T00:19:13;28.71;27.86;30.34;;
71016;Laerm;60940;52.046;5.340;2023-05-07T00:19:24;28.61;27.60;29.71;;
71016;Laerm;60940;52.046;5.340;2023-05-07T00:19:34;28.74;27.62;29.89;;
71016;Laerm;60940;52.046;5.340;2023-05-07T00:19:44;29.26;27.92;30.77;;
71016;Laerm;60940;52.046;5.340;2023-05-07T00:19:54;29.62;28.31;31.58;;
71016;Laerm;60940;52.046;5.340;2023-05-07T00:20:06;29.36;28.08;32.17;;
71016;Laerm;60940;52.046;5.340;2023-05-07T00:20:16;29.14;28.02;30.28;;
71016;Laerm;60940;52.046;5.340;2023-05-07T00:20:27;29.22;27.77;32.04;;
71016;Laerm;60940;52.046;5.340;2023-05-07T00:20:37;29.09;28.09;30.33;;
71016;Laerm;60940;52.046;5.340;2023-05-07T00:20:47;29.20;28.09;30.48;;
71016;Laerm;60940;52.046;5.340;2023-05-07T00:20:57;29.03;28.09;30.03;;
71016;Laerm;60940;52.046;5.340;2023-05-07T00:21:08;29.38;28.16;30.71;;
71016;Laerm;60940;52.046;5.340;2023-05-07T00:21:18;29.45;28.41;30.63;;
71016;Laerm;60940;52.046;5.340;2023-05-07T00:21:28;29.56;28.35;30.91;;
71016;Laerm;60940;52.046;5.340;2023-05-07T00:21:38;29.10;27.94;30.58;;
71016;Laerm;60940;52.046;5.340;2023-05-07T00:21:48;29.12;28.03;30.64;;
71016;Laerm;60940;52.046;5.340;2023-05-07T00:21:59;29.36;28.20;30.41;;
71016;Laerm;60940;52.046;5.340;2023-05-07T00:22:09;28.98;27.84;29.95;;
71016;Laerm;60940;52.046;5.340;2023-05-07T00:22:20;28.75;27.82;29.56;;
71016;Laerm;60940;52.046;5.340;2023-05-07T00:22:31;28.69;27.88;29.59;;
71016;Laerm;60940;52.046;5.340;2023-05-07T00:22:42;28.58;27.31;29.35;;
71016;Laerm;60940;52.046;5.340;2023-05-07T00:22:52;28.60;27.66;29.94;;
71016;Laerm;60940;52.046;5.340;2023-05-07T00:23:02;28.49;27.50;29.39;;
71016;Laerm;60940;52.046;5.340;2023-05-07T00:23:12;28.42;27.47;29.68;;
71016;Laerm;60940;52.046;5.340;2023-05-07T00:23:23;28.49;27.56;29.76;;
71016;Laerm;60940;52.046;5.340;2023-05-07T00:23:33;28.45;27.54;29.29;;
71016;Laerm;60940;52.046;5.340;2023-05-07T00:23:43;28.56;27.60;29.52;;
71016;Laerm;60940;52.046;5.340;2023-05-07T00:23:53;28.53;27.56;29.51;;
71016;Laerm;60940;52.046;5.340;2023-05-07T00:24:04;28.57;27.54;29.50;;
71016;Laerm;60940;52.046;5.340;2023-05-07T00:24:14;29.00;27.47;38.30;;
71016;Laerm;60940;52.046;5.340;2023-05-07T00:24:25;29.30;27.66;31.83;;
71016;Laerm;60940;52.046;5.340;2023-05-07T00:24:35;28.94;27.68;30.19;;
71016;Laerm;60940;52.046;5.340;2023-05-07T00:24:45;28.73;27.56;29.69;;
71016;Laerm;60940;52.046;5.340;2023-05-07T00:24:55;28.66;27.48;29.69;;
71016;Laerm;60940;52.046;5.340;2023-05-07T00:25:06;28.69;27.62;29.91;;
71016;Laerm;60940;52.046;5.340;2023-05-07T00:25:16;28.54;27.57;29.65;;
71016;Laerm;60940;52.046;5.340;2023-05-07T00:25:26;28.61;27.79;29.57;;
71016;Laerm;60940;52.046;5.340;2023-05-07T00:25:36;28.95;27.60;39.50;;
71016;Laerm;60940;52.046;5.340;2023-05-07T00:25:47;28.61;27.52;29.93;;
71016;Laerm;60940;52.046;5.340;2023-05-07T00:25:57;28.66;27.59;29.70;;
71016;Laerm;60940;52.046;5.340;2023-05-07T00:26:07;28.72;27.78;29.74;;
71016;Laerm;60940;52.046;5.340;2023-05-07T00:26:17;28.73;27.77;29.62;;
71016;Laerm;60940;52.046;5.340;2023-05-07T00:26:27;28.78;27.80;30.27;;
71016;Laerm;60940;52.046;5.340;2023-05-07T00:26:37;28.61;27.58;29.45;;
71016;Laerm;60940;52.046;5.340;2023-05-07T00:26:48;28.59;27.58;29.50;;
71016;Laerm;60940;52.046;5.340;2023-05-07T00:26:58;28.65;27.61;29.80;;
71016;Laerm;60940;52.046;5.340;2023-05-07T00:27:08;28.69;27.58;30.22;;
71016;Laerm;60940;52.046;5.340;2023-05-07T00:27:18;28.61;27.66;31.85;;
71016;Laerm;60940;52.046;5.340;2023-05-07T00:27:28;28.61;27.46;31.35;;
71016;Laerm;60940;52.046;5.340;2023-05-07T00:27:39;28.56;27.61;30.05;;
71016;Laerm;60940;52.046;5.340;2023-05-07T00:27:49;28.73;27.62;31.29;;
71016;Laerm;60940;52.046;5.340;2023-05-07T00:27:59;28.57;27.47;29.55;;
71016;Laerm;60940;52.046;5.340;2023-05-07T00:28:13;28.56;27.57;29.80;;
71016;Laerm;60940;52.046;5.340;2023-05-07T00:28:23;28.57;27.26;29.97;;
71016;Laerm;60940;52.046;5.340;2023-05-07T00:28:33;28.57;27.53;29.65;;
71016;Laerm;60940;52.046;5.340;2023-05-07T00:28:44;28.63;27.51;29.96;;
71016;Laerm;60940;52.046;5.340;2023-05-07T00:28:54;28.60;27.48;29.82;;
71016;Laerm;60940;52.046;5.340;2023-05-07T00:29:04;28.57;27.73;29.56;;
71016;Laerm;60940;52.046;5.340;2023-05-07T00:29:15;28.61;27.76;29.52;;
71016;Laerm;60940;52.046;5.340;2023-05-07T00:29:25;28.63;27.65;29.70;;
71016;Laerm;60940;52.046;5.340;2023-05-07T00:29:35;28.68;27.59;29.78;;
71016;Laerm;60940;52.046;5.340;2023-05-07T00:29:46;28.72;27.71;29.92;;
71016;Laerm;60940;52.046;5.340;2023-05-07T00:29:57;28.67;27.51;30.19;;
71016;Laerm;60940;52.046;5.340;2023-05-07T00:30:07;28.74;27.58;30.84;;
71016;Laerm;60940;52.046;5.340;2023-05-07T00:30:18;28.74;27.17;29.83;;
71016;Laerm;60940;52.046;5.340;2023-05-07T00:30:31;28.65;27.63;31.20;;
71016;Laerm;60940;52.046;5.340;2023-05-07T00:30:41;28.63;27.45;30.13;;
71016;Laerm;60940;52.046;5.340;2023-05-07T00:30:52;28.64;27.56;30.21;;
71016;Laerm;60940;52.046;5.340;2023-05-07T00:31:02;28.87;27.71;38.70;;
71016;Laerm;60940;52.046;5.340;2023-05-07T00:31:12;28.61;27.57;29.59;;
71016;Laerm;60940;52.046;5.340;2023-05-07T00:31:22;28.85;27.66;29.90;;
71016;Laerm;60940;52.046;5.340;2023-05-07T00:31:33;29.85;28.59;31.46;;
71016;Laerm;60940;52.046;5.340;2023-05-07T00:31:43;28.95;27.57;32.49;;
71016;Laerm;60940;52.046;5.340;2023-05-07T00:31:53;28.66;27.64;29.48;;
71016;Laerm;60940;52.046;5.340;2023-05-07T00:32:04;28.62;27.66;29.84;;
71016;Laerm;60940;52.046;5.340;2023-05-07T00:32:15;28.71;27.69;29.48;;
71016;Laerm;60940;52.046;5.340;2023-05-07T00:32:25;28.73;27.73;31.51;;
71016;Laerm;60940;52.046;5.340;2023-05-07T00:32:35;28.71;27.58;29.54;;
71016;Laerm;60940;52.046;5.340;2023-05-07T00:32:47;28.67;27.49;29.56;;
71016;Laerm;60940;52.046;5.340;2023-05-07T00:32:58;28.62;27.34;33.55;;
71016;Laerm;60940;52.046;5.340;2023-05-07T00:33:09;28.57;27.60;29.96;;
71016;Laerm;60940;52.046;5.340;2023-05-07T00:33:19;28.48;27.56;29.48;;
71016;Laerm;60940;52.046;5.340;2023-05-07T00:33:30;28.51;27.12;31.38;;
71016;Laerm;60940;52.046;5.340;2023-05-07T00:33:41;28.65;27.53;29.75;;
71016;Laerm;60940;52.046;5.340;2023-05-07T00:33:51;29.14;27.79;34.63;;
71016;Laerm;60940;52.046;5.340;2023-05-07T00:34:01;28.75;27.46;30.73;;
71016;Laerm;60940;52.046;5.340;2023-05-07T00:34:11;28.94;27.82;29.93;;
71016;Laerm;60940;52.046;5.340;2023-05-07T00:34:21;29.20;27.98;30.83;;
71016;Laerm;60940;52.046;5.340;2023-05-07T00:34:32;28.97;28.01;30.10;;
71016;Laerm;60940;52.046;5.340;2023-05-07T00:34:43;28.72;27.77;29.68;;
71016;Laerm;60940;52.046;5.340;2023-05-07T00:34:53;28.79;27.75;30.20;;
71016;Laerm;60940;52.046;5.340;2023-05-07T00:35:04;28.57;27.63;29.53;;
71016;Laerm;60940;52.046;5.340;2023-05-07T00:35:14;28.46;27.64;29.16;;
71016;Laerm;60940;52.046;5.340;2023-05-07T00:35:24;28.50;27.55;29.68;;
71016;Laerm;60940;52.046;5.340;2023-05-07T00:35:34;28.52;27.65;29.48;;
71016;Laerm;60940;52.046;5.340;2023-05-07T00:35:45;28.60;27.74;29.41;;
71016;Laerm;60940;52.046;5.340;2023-05-07T00:35:55;28.46;27.51;29.30;;
71016;Laerm;60940;52.046;5.340;2023-05-07T00:36:05;28.44;27.27;29.33;;
71016;Laerm;60940;52.046;5.340;2023-05-07T00:36:15;28.54;27.41;29.54;;
71016;Laerm;60940;52.046;5.340;2023-05-07T00:36:25;28.50;27.53;29.48;;
71016;Laerm;60940;52.046;5.340;2023-05-07T00:36:36;28.57;27.55;29.56;;
71016;Laerm;60940;52.046;5.340;2023-05-07T00:36:46;28.91;27.65;30.96;;
71016;Laerm;60940;52.046;5.340;2023-05-07T00:36:56;28.64;27.50;29.46;;
71016;Laerm;60940;52.046;5.340;2023-05-07T00:37:06;28.56;27.32;29.44;;
71016;Laerm;60940;52.046;5.340;2023-05-07T00:37:17;28.71;27.86;29.60;;
71016;Laerm;60940;52.046;5.340;2023-05-07T00:37:27;28.65;27.39;29.88;;
71016;Laerm;60940;52.046;5.340;2023-05-07T00:37:37;28.68;27.61;29.99;;
71016;Laerm;60940;52.046;5.340;2023-05-07T00:37:47;28.78;27.66;31.23;;
71016;Laerm;60940;52.046;5.340;2023-05-07T00:37:58;28.63;27.46;29.69;;
71016;Laerm;60940;52.046;5.340;2023-05-07T00:38:09;28.51;27.47;29.30;;
71016;Laerm;60940;52.046;5.340;2023-05-07T00:38:19;28.51;27.35;29.73;;
71016;Laerm;60940;52.046;5.340;2023-05-07T00:38:29;28.50;27.53;29.77;;
71016;Laerm;60940;52.046;5.340;2023-05-07T00:38:39;28.45;27.49;29.14;;
71016;Laerm;60940;52.046;5.340;2023-05-07T00:38:49;28.53;27.55;29.39;;
71016;Laerm;60940;52.046;5.340;2023-05-07T00:39:00;28.55;27.72;29.45;;
71016;Laerm;60940;52.046;5.340;2023-05-07T00:39:12;28.62;27.63;29.56;;
71016;Laerm;60940;52.046;5.340;2023-05-07T00:39:22;28.55;27.66;29.49;;
71016;Laerm;60940;52.046;5.340;2023-05-07T00:39:32;28.59;27.60;29.72;;
71016;Laerm;60940;52.046;5.340;2023-05-07T00:39:42;28.54;27.51;29.46;;
71016;Laerm;60940;52.046;5.340;2023-05-07T00:39:53;28.50;27.68;29.53;;
71016;Laerm;60940;52.046;5.340;2023-05-07T00:40:03;28.44;27.41;29.26;;
71016;Laerm;60940;52.046;5.340;2023-05-07T00:40:17;28.47;27.40;29.37;;
71016;Laerm;60940;52.046;5.340;2023-05-07T00:40:27;28.44;27.00;29.34;;
71016;Laerm;60940;52.046;5.340;2023-05-07T00:40:37;28.57;27.62;29.59;;
71016;Laerm;60940;52.046;5.340;2023-05-07T00:40:47;28.58;27.74;29.93;;
71016;Laerm;60940;52.046;5.340;2023-05-07T00:40:57;28.89;27.51;38.21;;
71016;Laerm;60940;52.046;5.340;2023-05-07T00:41:08;29.31;27.83;30.93;;
71016;Laerm;60940;52.046;5.340;2023-05-07T00:41:18;28.90;27.41;29.90;;
71016;Laerm;60940;52.046;5.340;2023-05-07T00:41:28;29.19;28.13;30.96;;
71016;Laerm;60940;52.046;5.340;2023-05-07T00:41:39;29.57;27.96;31.10;;
71016;Laerm;60940;52.046;5.340;2023-05-07T00:41:49;28.97;27.94;30.20;;
71016;Laerm;60940;52.046;5.340;2023-05-07T00:42:01;29.06;27.64;31.68;;
71016;Laerm;60940;52.046;5.340;2023-05-07T00:42:12;29.65;28.33;31.76;;
71016;Laerm;60940;52.046;5.340;2023-05-07T00:42:22;29.54;28.23;30.79;;
71016;Laerm;60940;52.046;5.340;2023-05-07T00:42:33;30.11;28.73;31.70;;
71016;Laerm;60940;52.046;5.340;2023-05-07T00:42:44;30.27;28.57;33.03;;
71016;Laerm;60940;52.046;5.340;2023-05-07T00:42:57;29.73;28.13;30.93;;
71016;Laerm;60940;52.046;5.340;2023-05-07T00:43:08;29.54;28.27;31.14;;
71016;Laerm;60940;52.046;5.340;2023-05-07T00:43:18;29.15;28.07;30.29;;
71016;Laerm;60940;52.046;5.340;2023-05-07T00:43:29;28.70;27.77;29.68;;
71016;Laerm;60940;52.046;5.340;2023-05-07T00:43:39;28.69;27.50;29.58;;
71016;Laerm;60940;52.046;5.340;2023-05-07T00:43:50;28.76;27.72;29.88;;
71016;Laerm;60940;52.046;5.340;2023-05-07T00:44:03;28.85;27.73;29.92;;
71016;Laerm;60940;52.046;5.340;2023-05-07T00:44:14;28.79;27.80;30.48;;
71016;Laerm;60940;52.046;5.340;2023-05-07T00:44:24;28.95;27.80;30.05;;
71016;Laerm;60940;52.046;5.340;2023-05-07T00:44:35;28.95;27.74;30.32;;
71016;Laerm;60940;52.046;5.340;2023-05-07T00:44:45;28.73;27.73;29.67;;
71016;Laerm;60940;52.046;5.340;2023-05-07T00:44:55;28.79;27.64;29.91;;
71016;Laerm;60940;52.046;5.340;2023-05-07T00:45:06;28.85;27.87;29.80;;
71016;Laerm;60940;52.046;5.340;2023-05-07T00:45:17;28.74;27.67;29.85;;
71016;Laerm;60940;52.046;5.340;2023-05-07T00:45:28;28.84;27.67;29.93;;
71016;Laerm;60940;52.046;5.340;2023-05-07T00:45:38;29.03;28.04;29.97;;
71016;Laerm;60940;52.046;5.340;2023-05-07T00:45:48;29.04;27.90;30.36;;
71016;Laerm;60940;52.046;5.340;2023-05-07T00:45:58;28.91;27.96;30.22;;
71016;Laerm;60940;52.046;5.340;2023-05-07T00:46:09;29.35;28.31;30.62;;
71016;Laerm;60940;52.046;5.340;2023-05-07T00:46:20;29.52;27.95;30.82;;
71016;Laerm;60940;52.046;5.340;2023-05-07T00:46:30;29.83;28.65;31.22;;
71016;Laerm;60940;52.046;5.340;2023-05-07T00:46:41;30.22;28.48;32.54;;
71016;Laerm;60940;52.046;5.340;2023-05-07T00:46:52;30.88;28.58;33.92;;
71016;Laerm;60940;52.046;5.340;2023-05-07T00:47:03;30.21;28.55;31.87;;
71016;Laerm;60940;52.046;5.340;2023-05-07T00:47:13;30.46;28.53;32.03;;
71016;Laerm;60940;52.046;5.340;2023-05-07T00:47:23;30.36;29.08;32.84;;
71016;Laerm;60940;52.046;5.340;2023-05-07T00:47:35;29.77;28.56;31.46;;
71016;Laerm;60940;52.046;5.340;2023-05-07T00:47:45;29.36;28.10;30.28;;
71016;Laerm;60940;52.046;5.340;2023-05-07T00:47:56;29.54;28.57;31.27;;
71016;Laerm;60940;52.046;5.340;2023-05-07T00:48:07;29.12;28.13;30.38;;
71016;Laerm;60940;52.046;5.340;2023-05-07T00:48:17;28.90;27.56;29.84;;
71016;Laerm;60940;52.046;5.340;2023-05-07T00:48:28;29.36;27.93;31.07;;
71016;Laerm;60940;52.046;5.340;2023-05-07T00:48:38;30.13;28.27;31.67;;
71016;Laerm;60940;52.046;5.340;2023-05-07T00:48:49;30.02;28.24;31.36;;
71016;Laerm;60940;52.046;5.340;2023-05-07T00:49:00;29.27;28.17;30.77;;
71016;Laerm;60940;52.046;5.340;2023-05-07T00:49:10;29.38;28.15;30.49;;
71016;Laerm;60940;52.046;5.340;2023-05-07T00:49:21;28.94;27.73;30.03;;
71016;Laerm;60940;52.046;5.340;2023-05-07T00:49:35;29.12;28.01;30.95;;
71016;Laerm;60940;52.046;5.340;2023-05-07T00:49:48;30.02;28.19;32.54;;
71016;Laerm;60940;52.046;5.340;2023-05-07T00:49:58;29.09;28.08;30.25;;
71016;Laerm;60940;52.046;5.340;2023-05-07T00:50:08;29.20;27.84;30.52;;
71016;Laerm;60940;52.046;5.340;2023-05-07T00:50:20;29.86;28.51;31.63;;
71016;Laerm;60940;52.046;5.340;2023-05-07T00:50:31;29.33;28.25;30.76;;
71016;Laerm;60940;52.046;5.340;2023-05-07T00:50:42;29.10;28.01;30.13;;
71016;Laerm;60940;52.046;5.340;2023-05-07T00:50:53;28.90;28.09;29.88;;
71016;Laerm;60940;52.046;5.340;2023-05-07T00:51:03;28.73;27.93;29.95;;
71016;Laerm;60940;52.046;5.340;2023-05-07T00:51:13;28.77;27.72;29.67;;
71016;Laerm;60940;52.046;5.340;2023-05-07T00:51:24;28.94;27.68;30.12;;
71016;Laerm;60940;52.046;5.340;2023-05-07T00:51:35;29.01;27.62;30.11;;
71016;Laerm;60940;52.046;5.340;2023-05-07T00:51:45;28.89;27.57;30.21;;
71016;Laerm;60940;52.046;5.340;2023-05-07T00:51:55;28.89;27.47;30.07;;
71016;Laerm;60940;52.046;5.340;2023-05-07T00:52:06;28.56;27.38;29.41;;
71016;Laerm;60940;52.046;5.340;2023-05-07T00:52:17;28.56;27.69;30.20;;
71016;Laerm;60940;52.046;5.340;2023-05-07T00:52:29;28.60;27.53;32.28;;
71016;Laerm;60940;52.046;5.340;2023-05-07T00:52:40;28.80;27.74;30.05;;
71016;Laerm;60940;52.046;5.340;2023-05-07T00:52:51;28.71;27.50;29.85;;
71016;Laerm;60940;52.046;5.340;2023-05-07T00:53:01;28.87;27.38;30.24;;
71016;Laerm;60940;52.046;5.340;2023-05-07T00:53:12;28.96;28.04;30.00;;
71016;Laerm;60940;52.046;5.340;2023-05-07T00:53:22;29.02;27.76;30.79;;
71016;Laerm;60940;52.046;5.340;2023-05-07T00:53:33;28.97;27.86;30.15;;
71016;Laerm;60940;52.046;5.340;2023-05-07T00:53:44;28.66;27.67;29.93;;
71016;Laerm;60940;52.046;5.340;2023-05-07T00:53:54;28.67;27.79;31.44;;
71016;Laerm;60940;52.046;5.340;2023-05-07T00:54:04;28.72;27.82;29.88;;
71016;Laerm;60940;52.046;5.340;2023-05-07T00:54:15;28.67;27.87;29.62;;
71016;Laerm;60940;52.046;5.340;2023-05-07T00:54:26;28.59;27.59;29.63;;
71016;Laerm;60940;52.046;5.340;2023-05-07T00:54:36;28.67;27.32;29.81;;
71016;Laerm;60940;52.046;5.340;2023-05-07T00:54:47;29.22;28.03;30.66;;
71016;Laerm;60940;52.046;5.340;2023-05-07T00:54:57;29.81;28.44;32.27;;
71016;Laerm;60940;52.046;5.340;2023-05-07T00:55:09;29.73;28.46;32.49;;
71016;Laerm;60940;52.046;5.340;2023-05-07T00:55:20;29.09;27.55;30.52;;
71016;Laerm;60940;52.046;5.340;2023-05-07T00:55:30;28.98;27.97;30.10;;
71016;Laerm;60940;52.046;5.340;2023-05-07T00:55:40;28.91;27.82;32.30;;
71016;Laerm;60940;52.046;5.340;2023-05-07T00:55:51;28.88;27.94;30.15;;
71016;Laerm;60940;52.046;5.340;2023-05-07T00:56:02;28.96;27.93;30.40;;
71016;Laerm;60940;52.046;5.340;2023-05-07T00:56:12;29.15;28.16;30.43;;
71016;Laerm;60940;52.046;5.340;2023-05-07T00:56:22;29.03;27.75;30.01;;
71016;Laerm;60940;52.046;5.340;2023-05-07T00:56:33;28.93;27.88;30.32;;
71016;Laerm;60940;52.046;5.340;2023-05-07T00:56:44;28.60;27.65;30.06;;
71016;Laerm;60940;52.046;5.340;2023-05-07T00:56:54;28.62;27.64;29.66;;
71016;Laerm;60940;52.046;5.340;2023-05-07T00:57:05;28.62;27.13;29.42;;
71016;Laerm;60940;52.046;5.340;2023-05-07T00:57:16;28.91;27.81;30.15;;
71016;Laerm;60940;52.046;5.340;2023-05-07T00:57:26;29.20;27.75;30.35;;
71016;Laerm;60940;52.046;5.340;2023-05-07T00:57:37;28.87;27.84;30.00;;
71016;Laerm;60940;52.046;5.340;2023-05-07T00:57:47;29.29;28.25;30.69;;
71016;Laerm;60940;52.046;5.340;2023-05-07T00:57:57;29.04;28.13;30.02;;
71016;Laerm;60940;52.046;5.340;2023-05-07T00:58:08;29.04;28.00;30.20;;
71016;Laerm;60940;52.046;5.340;2023-05-07T00:58:18;29.13;27.98;30.17;;
71016;Laerm;60940;52.046;5.340;2023-05-07T00:58:29;29.41;28.11;30.76;;
71016;Laerm;60940;52.046;5.340;2023-05-07T00:58:40;29.11;27.77;30.31;;
71016;Laerm;60940;52.046;5.340;2023-05-07T00:58:50;28.82;27.78;29.79;;